createdAt,value
2022-09-01T00:00:21.234Z,12.27
2022-09-01T00:01:27.407Z,12.24
2022-09-01T00:02:32.759Z,12.21
2022-09-01T00:03:35.283Z,12.24
2022-09-01T00:04:41.401Z,12.19
2022-09-01T00:05:46.367Z,12.18
2022-09-01T00:06:51.623Z,12.13
2022-09-01T00:07:53.677Z,12.17
2022-09-01T00:09:00.888Z,12.15
2022-09-01T00:10:06.701Z,12.08
2022-09-01T00:11:12.240Z,12.08
2022-09-01T00:12:14.240Z,12.06
2022-09-01T00:13:19.438Z,12.01
2022-09-01T00:14:30.646Z,11.98
2022-09-01T00:15:35.760Z,11.97
2022-09-01T00:16:40.583Z,11.93
2022-09-01T00:17:45.328Z,11.89
2022-09-01T00:18:49.980Z,11.88
2022-09-01T00:19:54.914Z,11.89
2022-09-01T00:20:59.364Z,11.91
2022-09-01T00:22:04.867Z,11.93
2022-09-01T00:23:06.866Z,11.90
2022-09-01T00:24:13.812Z,11.93
2022-09-01T00:25:18.954Z,11.92
2022-09-01T00:26:23.669Z,11.97
2022-09-01T00:27:30.560Z,11.95
2022-09-01T00:28:36.499Z,11.90
2022-09-01T00:29:38.770Z,11.90
2022-09-01T00:30:48.546Z,11.91
2022-09-01T00:31:54.105Z,11.84
2022-09-01T00:32:58.847Z,11.86
2022-09-01T00:34:01.155Z,11.86
2022-09-01T00:35:05.878Z,11.86
2022-09-01T00:36:08.516Z,11.88
2022-09-01T00:37:13.173Z,11.84
2022-09-01T00:38:15.113Z,11.81
2022-09-01T00:39:19.709Z,11.80
2022-09-01T00:40:21.891Z,11.80
2022-09-01T00:41:32.751Z,11.77
2022-09-01T00:42:34.773Z,11.82
2022-09-01T00:43:44.573Z,11.83
2022-09-01T00:44:46.844Z,11.78
2022-09-01T00:45:52.484Z,11.76
2022-09-01T00:46:58.241Z,11.73
2022-09-01T00:48:05.963Z,11.72
2022-09-01T00:49:12.251Z,11.70
2022-09-01T00:50:19.577Z,11.74
2022-09-01T00:51:22.117Z,11.72
2022-09-01T00:52:33.683Z,11.69
2022-09-01T00:53:36.917Z,11.69
2022-09-01T00:54:45.944Z,11.71
2022-09-01T00:55:48.345Z,11.76
2022-09-01T00:56:57.556Z,11.76
2022-09-01T00:58:02.718Z,11.77
2022-09-01T00:59:08.981Z,11.76
2022-09-01T01:00:14.322Z,11.76
2022-09-01T01:01:19.099Z,11.76
2022-09-01T01:02:24.403Z,11.78
2022-09-01T01:03:30.296Z,11.78
2022-09-01T01:04:32.882Z,11.76
2022-09-01T01:05:42.076Z,11.74
2022-09-01T01:06:49.855Z,11.70
2022-09-01T01:07:54.545Z,11.65
2022-09-01T01:08:58.146Z,11.61
2022-09-01T01:10:02.813Z,11.57
2022-09-01T01:11:07.545Z,11.53
2022-09-01T01:12:17.752Z,11.52
2022-09-01T01:13:21.077Z,11.54
2022-09-01T01:14:27.825Z,11.48
2022-09-01T01:15:29.993Z,11.42
2022-09-01T01:16:35.155Z,11.40
2022-09-01T01:17:39.968Z,11.42
2022-09-01T01:18:44.832Z,11.41
2022-09-01T01:20:05.022Z,11.38
2022-09-01T01:21:30.710Z,11.33
2022-09-01T01:22:56.610Z,11.29
2022-09-01T01:24:09.377Z,11.35
2022-09-01T01:25:14.117Z,11.31
2022-09-01T01:26:18.734Z,11.37
2022-09-01T01:27:21.911Z,11.37
2022-09-01T01:28:32.113Z,11.40
2022-09-01T01:29:38.821Z,11.43
2022-09-01T01:30:45.884Z,11.40
2022-09-01T01:31:49.730Z,11.35
2022-09-01T01:32:55.513Z,11.37
2022-09-01T01:33:58.946Z,11.31
2022-09-01T01:35:05.999Z,11.32
2022-09-01T01:36:12.631Z,11.25
2022-09-01T01:37:18.886Z,11.22
2022-09-01T01:38:23.049Z,11.23
2022-09-01T01:39:28.853Z,11.15
2022-09-01T01:40:33.611Z,11.13
2022-09-01T01:41:45.240Z,11.09
2022-09-01T01:42:50.539Z,11.08
2022-09-01T01:43:55.123Z,11.07
2022-09-01T01:44:57.435Z,11.07
2022-09-01T01:46:02.951Z,11.02
2022-09-01T01:47:08.511Z,10.98
2022-09-01T01:48:13.130Z,10.96
2022-09-01T01:49:20.087Z,10.95
2022-09-01T01:50:26.236Z,10.93
2022-09-01T01:51:31.939Z,10.91
2022-09-01T01:52:36.549Z,10.92
2022-09-01T01:53:40.205Z,10.95
2022-09-01T01:54:46.203Z,10.99
2022-09-01T01:55:53.415Z,11.00
2022-09-01T01:56:57.388Z,11.07
2022-09-01T01:58:04.739Z,11.10
2022-09-01T01:59:07.232Z,11.14
2022-09-01T02:00:19.526Z,11.17
2022-09-01T02:01:33.891Z,11.20
2022-09-01T02:02:38.218Z,11.36
2022-09-01T02:03:43.554Z,11.31
2022-09-01T02:04:45.578Z,11.34
2022-09-01T02:05:51.921Z,11.39
2022-09-01T02:06:55.925Z,11.40
2022-09-01T02:08:04.754Z,11.47
2022-09-01T02:09:07.079Z,11.52
2022-09-01T02:10:12.449Z,11.56
2022-09-01T02:11:17.431Z,11.52
2022-09-01T02:12:25.285Z,11.56
2022-09-01T02:13:31.017Z,11.53
2022-09-01T02:14:35.986Z,11.58
2022-09-01T02:15:43.814Z,11.53
2022-09-01T02:16:48.541Z,11.56
2022-09-01T02:17:50.978Z,11.53
2022-09-01T02:18:55.946Z,11.52
2022-09-01T02:19:58.424Z,11.48
2022-09-01T02:21:03.260Z,11.46
2022-09-01T02:22:05.319Z,11.42
2022-09-01T02:23:12.472Z,11.43
2022-09-01T02:24:15.675Z,11.41
2022-09-01T02:25:20.822Z,11.41
2022-09-01T02:26:31.331Z,11.35
2022-09-01T02:27:39.495Z,11.37
2022-09-01T02:28:42.910Z,11.37
2022-09-01T02:29:47.487Z,11.38
2022-09-01T02:30:52.034Z,11.39
2022-09-01T02:31:59.482Z,11.37
2022-09-01T02:33:01.923Z,11.34
2022-09-01T02:34:10.810Z,11.31
2022-09-01T02:35:13.447Z,11.30
2022-09-01T02:36:20.879Z,11.24
2022-09-01T02:37:25.603Z,11.35
2022-09-01T02:38:33.842Z,11.31
2022-09-01T02:39:35.959Z,11.28
2022-09-01T02:40:41.346Z,11.33
2022-09-01T02:41:46.513Z,11.29
2022-09-01T02:42:55.443Z,11.26
2022-09-01T02:43:57.523Z,11.28
2022-09-01T02:45:02.722Z,11.29
2022-09-01T02:46:06.388Z,11.29
2022-09-01T02:47:11.640Z,11.30
2022-09-01T02:48:14.170Z,11.31
2022-09-01T02:49:24.846Z,11.35
2022-09-01T02:50:27.439Z,11.38
2022-09-01T02:51:32.098Z,11.35
2022-09-01T02:52:38.228Z,11.30
2022-09-01T02:53:43.658Z,11.28
2022-09-01T02:54:45.942Z,11.26
2022-09-01T02:55:51.756Z,11.26
2022-09-01T02:56:56.598Z,11.24
2022-09-01T02:58:01.204Z,11.21
2022-09-01T02:59:03.347Z,11.15
2022-09-01T03:00:20.877Z,11.13
2022-09-01T03:01:25.248Z,11.07
2022-09-01T03:02:30.226Z,11.06
2022-09-01T03:03:35.889Z,11.03
2022-09-01T03:04:40.548Z,11.03
2022-09-01T03:05:43.219Z,10.99
2022-09-01T03:06:48.094Z,10.96
2022-09-01T03:07:50.104Z,10.94
2022-09-01T03:08:56.853Z,10.92
2022-09-01T03:09:58.874Z,10.91
2022-09-01T03:11:04.062Z,10.89
2022-09-01T03:12:11.403Z,10.88
2022-09-01T03:13:15.961Z,10.87
2022-09-01T03:14:20.952Z,10.84
2022-09-01T03:15:23.483Z,10.80
2022-09-01T03:16:30.468Z,10.76
2022-09-01T03:17:32.637Z,10.74
2022-09-01T03:18:37.565Z,10.69
2022-09-01T03:19:44.445Z,10.66
2022-09-01T03:20:51.035Z,10.64
2022-09-01T03:21:53.051Z,10.67
2022-09-01T03:22:58.088Z,10.65
2022-09-01T03:24:02.190Z,10.63
2022-09-01T03:25:07.666Z,10.65
2022-09-01T03:26:09.921Z,10.72
2022-09-01T03:27:17.130Z,10.68
2022-09-01T03:28:19.541Z,10.67
2022-09-01T03:29:24.688Z,10.65
2022-09-01T03:30:27.010Z,10.63
2022-09-01T03:31:32.317Z,10.65
2022-09-01T03:32:34.376Z,10.66
2022-09-01T03:33:39.378Z,10.69
2022-09-01T03:34:41.559Z,10.68
2022-09-01T03:35:46.715Z,10.67
2022-09-01T03:36:53.452Z,10.66
2022-09-01T03:37:59.286Z,10.61
2022-09-01T03:39:04.774Z,10.58
2022-09-01T03:40:09.224Z,10.53
2022-09-01T03:41:14.287Z,10.51
2022-09-01T03:42:26.034Z,10.49
2022-09-01T03:43:35.758Z,10.48
2022-09-01T03:44:42.907Z,10.47
2022-09-01T03:45:45.297Z,10.51
2022-09-01T03:46:50.731Z,10.53
2022-09-01T03:47:54.525Z,10.55
2022-09-01T03:49:03.393Z,10.59
2022-09-01T03:50:07.390Z,10.68
2022-09-01T03:51:14.494Z,10.74
2022-09-01T03:52:17.399Z,10.77
2022-09-01T03:53:27.446Z,10.80
2022-09-01T03:54:30.555Z,10.84
2022-09-01T03:55:38.284Z,10.93
2022-09-01T03:56:41.928Z,11.03
2022-09-01T03:57:49.462Z,11.18
2022-09-01T03:58:52.170Z,11.24
2022-09-01T03:59:57.568Z,11.29
2022-09-01T04:01:02.077Z,11.37
2022-09-01T04:02:07.771Z,11.43
2022-09-01T04:03:13.130Z,11.52
2022-09-01T04:04:18.275Z,11.60
2022-09-01T04:05:25.075Z,11.68
2022-09-01T04:06:31.061Z,11.77
2022-09-01T04:07:33.570Z,11.81
2022-09-01T04:08:39.499Z,11.85
2022-09-01T04:09:44.333Z,11.90
2022-09-01T04:10:54.193Z,11.95
2022-09-01T04:11:59.264Z,12.01
2022-09-01T04:13:04.489Z,12.05
2022-09-01T04:14:09.491Z,12.07
2022-09-01T04:15:12.773Z,12.12
2022-09-01T04:16:34.931Z,12.16
2022-09-01T04:17:52.204Z,12.17
2022-09-01T04:18:56.787Z,12.22
2022-09-01T04:19:58.805Z,12.25
2022-09-01T04:21:03.477Z,12.26
2022-09-01T04:22:08.164Z,12.29
2022-09-01T04:23:13.671Z,12.32
2022-09-01T04:24:16.037Z,12.32
2022-09-01T04:25:23.383Z,12.36
2022-09-01T04:26:26.882Z,12.37
2022-09-01T04:27:31.509Z,12.39
2022-09-01T04:28:39.162Z,12.43
2022-09-01T04:29:45.943Z,12.49
2022-09-01T04:30:48.826Z,12.52
2022-09-01T04:32:02.264Z,12.52
2022-09-01T04:33:04.494Z,12.52
2022-09-01T04:34:13.905Z,12.52
2022-09-01T04:35:17.279Z,12.52
2022-09-01T04:36:25.477Z,12.53
2022-09-01T04:37:29.044Z,12.54
2022-09-01T04:38:35.787Z,12.57
2022-09-01T04:39:39.387Z,12.59
2022-09-01T04:40:44.376Z,12.58
2022-09-01T04:41:47.006Z,12.58
2022-09-01T04:42:51.596Z,12.59
2022-09-01T04:43:57.189Z,12.60
2022-09-01T04:45:10.354Z,12.62
2022-09-01T04:46:14.659Z,12.63
2022-09-01T04:47:19.854Z,12.64
2022-09-01T04:48:22.302Z,12.67
2022-09-01T04:49:29.813Z,12.69
2022-09-01T04:50:32.939Z,12.70
2022-09-01T04:51:38.654Z,12.72
2022-09-01T04:52:42.285Z,12.73
2022-09-01T04:53:48.953Z,12.73
2022-09-01T04:54:51.073Z,12.74
2022-09-01T04:55:55.909Z,12.75
2022-09-01T04:56:58.160Z,12.75
2022-09-01T04:58:08.302Z,12.77
2022-09-01T04:59:15.770Z,12.79
2022-09-01T05:00:25.174Z,12.83
2022-09-01T05:01:27.903Z,12.82
2022-09-01T05:02:32.583Z,12.84
2022-09-01T05:03:35.906Z,12.85
2022-09-01T05:04:45.060Z,12.88
2022-09-01T05:05:47.269Z,12.88
2022-09-01T05:07:00.881Z,12.92
2022-09-01T05:08:03.334Z,12.93
2022-09-01T05:09:09.940Z,12.90
2022-09-01T05:10:12.394Z,12.88
2022-09-01T05:11:17.960Z,12.92
2022-09-01T05:12:23.087Z,12.94
2022-09-01T05:13:29.670Z,12.95
2022-09-01T05:14:34.396Z,12.95
2022-09-01T05:15:43.097Z,12.96
2022-09-01T05:16:45.489Z,12.97
2022-09-01T05:17:51.815Z,13.01
2022-09-01T05:18:55.863Z,13.03
2022-09-01T05:20:01.073Z,13.01
2022-09-01T05:21:09.956Z,13.07
2022-09-01T05:22:15.881Z,13.06
2022-09-01T05:23:22.751Z,13.10
2022-09-01T05:24:39.856Z,13.10
2022-09-01T05:25:47.019Z,13.12
2022-09-01T05:26:50.963Z,13.12
2022-09-01T05:27:56.833Z,13.15
2022-09-01T05:29:01.358Z,13.16
2022-09-01T05:30:10.395Z,13.19
2022-09-01T05:31:13.176Z,13.20
2022-09-01T05:32:17.889Z,13.23
2022-09-01T05:33:22.101Z,13.24
2022-09-01T05:34:29.859Z,13.27
2022-09-01T05:35:33.065Z,13.27
2022-09-01T05:36:39.501Z,13.30
2022-09-01T05:37:42.861Z,13.29
2022-09-01T05:38:48.239Z,13.32
2022-09-01T05:39:50.471Z,13.33
2022-09-01T05:41:03.842Z,13.33
2022-09-01T05:42:08.975Z,13.34
2022-09-01T05:43:13.916Z,13.37
2022-09-01T05:44:18.988Z,13.38
2022-09-01T05:45:24.486Z,13.38
2022-09-01T05:46:30.165Z,13.37
2022-09-01T05:47:34.581Z,13.41
2022-09-01T05:48:40.059Z,13.45
2022-09-01T05:49:42.242Z,13.49
2022-09-01T05:50:46.928Z,13.52
2022-09-01T05:51:51.952Z,13.61
2022-09-01T05:52:56.578Z,13.62
2022-09-01T05:53:59.395Z,13.70
2022-09-01T05:55:04.893Z,13.77
2022-09-01T05:56:09.517Z,13.81
2022-09-01T05:57:33.189Z,13.79
2022-09-01T06:00:02.281Z,13.94
2022-09-01T06:01:07.645Z,13.92
2022-09-01T06:02:12.553Z,13.96
2022-09-01T06:03:16.136Z,14.00
2022-09-01T06:04:21.128Z,14.00
2022-09-01T06:05:23.822Z,14.05
2022-09-01T06:06:43.954Z,14.10
2022-09-01T06:07:57.421Z,14.22
2022-09-01T06:09:02.354Z,14.28
2022-09-01T06:10:05.319Z,14.29
2022-09-01T06:11:12.734Z,14.35
2022-09-01T06:12:23.513Z,14.41
2022-09-01T06:13:28.157Z,14.49
2022-09-01T06:14:32.236Z,14.53
2022-09-01T06:15:39.147Z,14.54
2022-09-01T06:16:47.516Z,14.65
2022-09-01T06:17:49.881Z,14.72
2022-09-01T06:18:55.309Z,14.77
2022-09-01T06:19:58.126Z,14.81
2022-09-01T06:21:04.171Z,14.86
2022-09-01T06:22:06.447Z,14.93
2022-09-01T06:23:15.407Z,14.97
2022-09-01T06:24:18.189Z,15.07
2022-09-01T06:25:24.167Z,15.14
2022-09-01T06:26:28.966Z,15.20
2022-09-01T06:27:33.686Z,15.30
2022-09-01T06:28:41.441Z,15.37
2022-09-01T06:29:44.731Z,15.44
2022-09-01T06:30:50.596Z,15.50
2022-09-01T06:31:55.257Z,15.59
2022-09-01T06:33:02.273Z,15.64
2022-09-01T06:34:05.519Z,15.70
2022-09-01T06:35:11.847Z,15.76
2022-09-01T06:36:15.990Z,15.84
2022-09-01T06:37:22.992Z,15.85
2022-09-01T06:38:27.203Z,15.85
2022-09-01T06:39:31.841Z,15.92
2022-09-01T06:40:35.565Z,15.99
2022-09-01T06:41:40.353Z,16.01
2022-09-01T06:42:43.311Z,16.05
2022-09-01T06:43:50.789Z,16.11
2022-09-01T06:44:52.859Z,16.17
2022-09-01T06:45:57.517Z,16.24
2022-09-01T06:47:02.865Z,16.28
2022-09-01T06:48:07.698Z,16.30
2022-09-01T06:49:11.662Z,16.37
2022-09-01T06:51:14.797Z,16.42
2022-09-01T06:51:42.991Z,16.49
2022-09-01T06:54:14.658Z,16.46
2022-09-01T06:55:17.442Z,16.49
2022-09-01T06:56:22.644Z,16.54
2022-09-01T06:58:51.461Z,16.57
2022-09-01T06:59:55.062Z,16.64
2022-09-01T07:01:00.184Z,16.62
2022-09-01T07:02:12.640Z,16.58
2022-09-01T07:03:18.983Z,16.66
2022-09-01T07:04:25.350Z,16.70
2022-09-01T07:07:53.050Z,16.83
2022-09-01T07:08:22.019Z,16.92
2022-09-01T07:09:38.779Z,17.00
2022-09-01T07:12:28.154Z,17.05
2022-09-01T07:13:34.877Z,17.18
2022-09-01T07:16:30.129Z,17.31
2022-09-01T07:17:30.717Z,17.54
2022-09-01T07:18:34.151Z,17.48
2022-09-01T07:19:54.840Z,17.53
2022-09-01T07:21:07.711Z,17.62
2022-09-01T07:23:03.462Z,17.79
2022-09-01T07:24:10.500Z,17.80
2022-09-01T07:25:13.014Z,17.87
2022-09-01T07:26:26.888Z,18.03
2022-09-01T07:27:35.918Z,17.94
2022-09-01T07:29:01.115Z,18.06
2022-09-01T07:30:09.588Z,18.20
2022-09-01T07:32:48.681Z,18.54
2022-09-01T07:33:54.250Z,18.68
2022-09-01T07:35:00.161Z,18.69
2022-09-01T07:43:22.425Z,19.47
2022-09-01T07:44:25.958Z,19.59
2022-09-01T07:45:30.860Z,19.62
2022-09-01T07:46:37.413Z,19.68
2022-09-01T07:47:55.644Z,19.64
2022-09-01T07:51:55.624Z,19.63
2022-09-01T07:52:57.774Z,19.66
2022-09-01T07:54:02.887Z,19.67
2022-09-01T07:55:06.225Z,19.74
2022-09-01T07:56:13.883Z,19.72
2022-09-01T07:57:15.943Z,19.71
2022-09-01T07:58:22.175Z,19.79
2022-09-01T07:59:28.099Z,19.88
2022-09-01T08:00:32.005Z,19.90
2022-09-01T08:01:36.693Z,19.85
2022-09-01T08:02:39.994Z,19.63
2022-09-01T08:03:45.155Z,19.76
2022-09-01T08:04:49.802Z,19.83
2022-09-01T08:06:00.948Z,19.84
2022-09-01T08:07:03.252Z,19.88
2022-09-01T08:08:27.922Z,19.84
2022-09-01T08:09:38.191Z,19.86
2022-09-01T08:10:49.461Z,19.79
2022-09-01T08:12:02.945Z,19.92
2022-09-01T08:13:05.297Z,19.97
2022-09-01T08:14:10.901Z,20.02
2022-09-01T08:15:13.907Z,19.93
2022-09-01T08:16:40.056Z,19.86
2022-09-01T08:17:56.387Z,19.78
2022-09-01T08:19:02.048Z,19.60
2022-09-01T08:20:09.033Z,19.36
2022-09-01T08:21:15.791Z,19.43
2022-09-01T08:22:19.503Z,19.40
2022-09-01T08:23:26.942Z,19.36
2022-09-01T08:24:29.056Z,19.41
2022-09-01T08:25:35.311Z,19.41
2022-09-01T08:26:40.536Z,19.25
2022-09-01T08:27:42.663Z,19.14
2022-09-01T08:28:54.981Z,18.97
2022-09-01T08:30:00.412Z,18.92
2022-09-01T08:31:11.082Z,18.97
2022-09-01T08:32:15.929Z,19.06
2022-09-01T08:33:18.109Z,19.22
2022-09-01T08:34:22.745Z,19.37
2022-09-01T08:35:29.620Z,19.41
2022-09-01T08:36:36.499Z,19.60
2022-09-01T08:37:39.673Z,19.70
2022-09-01T08:38:45.264Z,19.92
2022-09-01T08:39:48.563Z,20.01
2022-09-01T08:40:57.670Z,20.01
2022-09-01T08:42:08.869Z,19.99
2022-09-01T08:43:24.553Z,20.04
2022-09-01T08:44:37.919Z,20.22
2022-09-01T08:45:46.422Z,20.46
2022-09-01T08:46:57.640Z,20.65
2022-09-01T08:48:37.147Z,20.64
2022-09-01T08:49:42.921Z,20.89
2022-09-01T08:50:57.282Z,20.85
2022-09-01T08:52:10.910Z,21.07
2022-09-01T08:53:25.260Z,21.24
2022-09-01T08:54:35.533Z,21.25
2022-09-01T08:55:42.226Z,21.21
2022-09-01T08:56:47.951Z,21.36
2022-09-01T08:57:59.145Z,21.26
2022-09-01T08:59:03.180Z,21.37
2022-09-01T09:00:11.895Z,21.26
2022-09-01T09:01:27.621Z,21.19
2022-09-01T09:02:57.184Z,21.23
2022-09-01T09:04:18.026Z,20.97
2022-09-01T09:05:41.325Z,21.11
2022-09-01T09:06:56.274Z,20.94
2022-09-01T09:08:36.490Z,20.98
2022-09-01T09:09:53.724Z,20.93
2022-09-01T09:11:00.601Z,20.99
2022-09-01T09:12:16.515Z,21.04
2022-09-01T09:13:23.695Z,21.07
2022-09-01T09:14:40.282Z,21.08
2022-09-01T09:15:50.263Z,21.14
2022-09-01T09:16:55.282Z,21.20
2022-09-01T09:18:20.333Z,21.13
2022-09-01T09:19:37.852Z,21.28
2022-09-01T09:20:40.674Z,21.40
2022-09-01T09:21:50.827Z,21.53
2022-09-01T09:22:53.952Z,21.50
2022-09-01T09:24:07.152Z,21.63
2022-09-01T09:25:17.440Z,21.51
2022-09-01T09:26:22.358Z,21.70
2022-09-01T09:27:30.659Z,21.62
2022-09-01T09:28:35.438Z,21.66
2022-09-01T09:29:37.549Z,21.53
2022-09-01T09:30:42.726Z,21.34
2022-09-01T09:31:49.935Z,21.13
2022-09-01T09:33:30.965Z,21.10
2022-09-01T09:34:34.038Z,21.01
2022-09-01T09:35:41.077Z,20.94
2022-09-01T09:36:48.036Z,20.80
2022-09-01T09:38:23.977Z,20.89
2022-09-01T09:39:27.933Z,20.89
2022-09-01T09:40:53.191Z,20.71
2022-09-01T09:42:10.543Z,20.82
2022-09-01T09:43:16.323Z,20.94
2022-09-01T09:44:29.530Z,21.00
2022-09-01T09:45:36.551Z,21.13
2022-09-01T09:46:43.730Z,21.28
2022-09-01T09:47:49.591Z,21.29
2022-09-01T09:49:12.221Z,21.41
2022-09-01T09:50:22.649Z,21.67
2022-09-01T09:51:28.889Z,21.75
2022-09-01T09:52:33.751Z,21.99
2022-09-01T09:53:39.233Z,22.16
2022-09-01T09:55:00.051Z,22.25
2022-09-01T09:56:12.388Z,22.02
2022-09-01T09:57:18.224Z,22.22
2022-09-01T09:58:27.383Z,22.47
2022-09-01T09:59:56.959Z,22.71
2022-09-01T10:01:04.004Z,22.86
2022-09-01T10:02:32.834Z,22.52
2022-09-01T10:03:42.552Z,22.73
2022-09-01T10:04:47.366Z,22.73
2022-09-01T10:05:53.907Z,22.75
2022-09-01T10:06:56.069Z,22.80
2022-09-01T10:08:01.319Z,22.92
2022-09-01T10:09:09.908Z,22.59
2022-09-01T10:10:31.759Z,23.12
2022-09-01T10:11:41.389Z,23.46
2022-09-01T10:12:43.835Z,23.86
2022-09-01T10:13:48.588Z,24.18
2022-09-01T10:14:58.453Z,24.59
2022-09-01T10:16:08.083Z,24.78
2022-09-01T10:17:15.873Z,24.94
2022-09-01T10:18:28.913Z,24.86
2022-09-01T10:19:40.422Z,24.82
2022-09-01T10:20:51.728Z,24.88
2022-09-01T10:21:53.997Z,24.73
2022-09-01T10:22:59.259Z,24.70
2022-09-01T10:24:20.582Z,24.65
2022-09-01T10:25:33.231Z,24.45
2022-09-01T10:26:38.992Z,24.32
2022-09-01T10:27:47.677Z,24.12
2022-09-01T10:28:59.997Z,23.92
2022-09-01T10:30:14.110Z,23.44
2022-09-01T10:31:32.179Z,23.43
2022-09-01T10:32:50.783Z,23.36
2022-09-01T10:33:58.655Z,23.42
2022-09-01T10:35:03.351Z,23.35
2022-09-01T10:36:09.953Z,23.10
2022-09-01T10:37:16.110Z,23.22
2022-09-01T10:38:24.457Z,23.20
2022-09-01T10:39:27.693Z,23.35
2022-09-01T10:40:49.289Z,23.29
2022-09-01T10:41:59.634Z,23.49
2022-09-01T10:43:36.299Z,23.51
2022-09-01T10:44:59.084Z,23.73
2022-09-01T10:46:09.231Z,23.86
2022-09-01T10:47:30.188Z,24.16
2022-09-01T10:48:48.231Z,24.19
2022-09-01T10:50:26.149Z,24.28
2022-09-01T10:51:52.065Z,24.41
2022-09-01T10:53:07.514Z,24.38
2022-09-01T10:54:38.496Z,24.33
2022-09-01T10:56:18.839Z,23.93
2022-09-01T10:57:47.573Z,23.91
2022-09-01T11:02:26.750Z,24.07
2022-09-01T11:03:42.151Z,24.24
2022-09-01T11:05:33.168Z,24.40
2022-09-01T11:07:12.853Z,24.07
2022-09-01T11:08:23.673Z,24.22
2022-09-01T11:09:33.128Z,24.25
2022-09-01T11:10:51.592Z,23.91
2022-09-01T11:12:29.438Z,23.70
2022-09-01T11:13:49.994Z,23.66
2022-09-01T11:14:54.149Z,23.46
2022-09-01T11:16:00.716Z,23.40
2022-09-01T11:17:15.827Z,23.24
2022-09-01T11:18:29.537Z,22.87
2022-09-01T11:19:38.129Z,22.79
2022-09-01T11:20:45.534Z,22.82
2022-09-01T11:21:48.518Z,22.70
2022-09-01T11:23:04.828Z,22.66
2022-09-01T11:24:39.247Z,22.26
2022-09-01T11:25:48.555Z,22.32
2022-09-01T11:27:50.458Z,22.26
2022-09-01T11:28:55.143Z,22.22
2022-09-01T11:30:00.414Z,22.25
2022-09-01T11:31:14.562Z,22.29
2022-09-01T11:32:18.669Z,22.35
2022-09-01T11:33:36.818Z,22.44
2022-09-01T11:34:44.938Z,22.45
2022-09-01T11:35:47.867Z,22.63
2022-09-01T11:37:01.770Z,22.91
2022-09-01T11:38:07.904Z,22.88
2022-09-01T11:39:32.740Z,23.09
2022-09-01T11:40:36.399Z,23.52
2022-09-01T11:41:57.610Z,23.74
2022-09-01T11:43:19.283Z,23.76
2022-09-01T11:44:28.587Z,24.07
2022-09-01T11:45:34.057Z,24.24
2022-09-01T11:46:43.126Z,24.01
2022-09-01T11:47:50.450Z,24.29
2022-09-01T11:48:53.294Z,24.24
2022-09-01T11:50:01.153Z,24.19
2022-09-01T11:51:04.949Z,24.47
2022-09-01T11:52:09.845Z,24.57
2022-09-01T11:53:15.737Z,24.26
2022-09-01T11:54:20.443Z,24.43
2022-09-01T11:55:30.143Z,24.55
2022-09-01T11:56:34.980Z,24.61
2022-09-01T11:57:42.290Z,24.70
2022-09-01T11:58:47.062Z,24.96
2022-09-01T11:59:52.365Z,25.41
2022-09-01T12:01:00.221Z,25.52
2022-09-01T12:02:04.076Z,25.80
2022-09-01T12:03:21.924Z,25.87
2022-09-01T12:04:30.876Z,25.72
2022-09-01T12:05:38.164Z,26.06
2022-09-01T12:06:40.298Z,26.06
2022-09-01T12:07:50.019Z,26.82
2022-09-01T12:08:55.732Z,27.19
2022-09-01T12:10:00.541Z,27.71
2022-09-01T12:11:11.208Z,27.66
2022-09-01T12:12:33.135Z,28.39
2022-09-01T12:13:37.984Z,27.84
2022-09-01T12:15:04.354Z,28.46
2022-09-01T12:16:19.033Z,28.78
2022-09-01T12:17:21.736Z,28.80
2022-09-01T12:18:28.613Z,29.17
2022-09-01T12:19:35.741Z,29.34
2022-09-01T12:20:41.653Z,29.25
2022-09-01T12:21:44.197Z,29.13
2022-09-01T12:22:48.973Z,29.27
2022-09-01T12:23:51.426Z,29.78
2022-09-01T12:24:57.528Z,30.26
2022-09-01T12:26:01.781Z,29.79
2022-09-01T12:27:06.906Z,30.64
2022-09-01T12:28:11.593Z,30.67
2022-09-01T12:29:17.438Z,30.96
2022-09-01T12:30:23.749Z,30.72
2022-09-01T12:31:29.407Z,31.40
2022-09-01T12:32:34.286Z,31.73
2022-09-01T12:33:37.173Z,31.59
2022-09-01T12:34:44.776Z,31.62
2022-09-01T12:35:47.470Z,32.14
2022-09-01T12:37:06.514Z,32.22
2022-09-01T12:38:35.271Z,31.92
2022-09-01T12:39:39.988Z,31.33
2022-09-01T12:40:45.414Z,31.87
2022-09-01T12:42:04.772Z,32.26
2022-09-01T12:43:07.885Z,32.66
2022-09-01T12:44:30.980Z,32.68
2022-09-01T12:45:49.204Z,33.33
2022-09-01T12:46:51.336Z,32.93
2022-09-01T12:47:56.082Z,32.54
2022-09-01T12:49:21.796Z,31.27
2022-09-01T12:50:49.181Z,32.22
2022-09-01T12:51:54.104Z,33.11
2022-09-01T12:52:58.433Z,33.13
2022-09-01T12:54:05.010Z,33.45
2022-09-01T12:56:43.330Z,34.31
2022-09-01T12:57:51.380Z,34.84
2022-09-01T12:59:14.346Z,34.82
2022-09-01T13:00:21.686Z,34.99
2022-09-01T13:01:35.229Z,35.45
2022-09-01T13:02:39.547Z,35.70
2022-09-01T13:03:44.460Z,36.16
2022-09-01T13:04:47.148Z,36.02
2022-09-01T13:05:54.956Z,35.25
2022-09-01T13:07:01.235Z,34.80
2022-09-01T13:08:09.151Z,35.33
2022-09-01T13:09:13.757Z,35.89
2022-09-01T13:10:17.147Z,36.42
2022-09-01T13:11:23.261Z,36.32
2022-09-01T13:12:25.307Z,35.28
2022-09-01T13:13:31.319Z,34.35
2022-09-01T13:14:33.356Z,34.36
2022-09-01T13:15:39.791Z,34.24
2022-09-01T13:16:44.865Z,35.09
2022-09-01T13:17:49.843Z,34.71
2022-09-01T13:20:17.429Z,36.16
2022-09-01T13:21:19.450Z,35.31
2022-09-01T13:22:24.129Z,35.50
2022-09-01T13:23:26.329Z,33.48
2022-09-01T13:24:31.916Z,33.93
2022-09-01T13:25:37.058Z,33.56
2022-09-01T13:26:39.091Z,34.73
2022-09-01T13:27:45.391Z,34.60
2022-09-01T13:28:50.961Z,34.15
2022-09-01T13:29:56.072Z,35.06
2022-09-01T13:32:32.458Z,35.34
2022-09-01T13:34:09.454Z,35.46
2022-09-01T13:35:01.072Z,34.56
2022-09-01T13:36:42.531Z,34.85
2022-09-01T13:37:29.927Z,35.25
2022-09-01T13:38:32.213Z,35.19
2022-09-01T13:39:37.664Z,35.20
2022-09-01T13:40:42.584Z,35.41
2022-09-01T13:41:44.704Z,34.88
2022-09-01T13:42:51.377Z,34.70
2022-09-01T13:43:53.608Z,35.09
2022-09-01T13:44:58.307Z,34.62
2022-09-01T13:46:00.641Z,35.51
2022-09-01T13:50:11.204Z,36.53
2022-09-01T13:51:18.882Z,37.63
2022-09-01T13:52:21.809Z,38.41
2022-09-01T13:53:26.729Z,39.23
2022-09-01T13:54:28.819Z,39.69
2022-09-01T13:55:35.501Z,39.19
2022-09-01T13:56:40.378Z,39.39
2022-09-01T13:57:42.767Z,39.73
2022-09-01T13:58:48.488Z,39.82
2022-09-01T13:59:51.302Z,36.86
2022-09-01T14:00:57.462Z,38.50
2022-09-01T14:01:59.787Z,39.35
2022-09-01T14:03:08.493Z,39.07
2022-09-01T14:04:13.178Z,38.47
2022-09-01T14:05:18.100Z,38.03
2022-09-01T14:06:22.754Z,36.62
2022-09-01T14:07:24.764Z,36.95
2022-09-01T14:08:30.836Z,35.41
2022-09-01T14:09:33.315Z,36.17
2022-09-01T14:10:42.368Z,36.50
2022-09-01T14:11:44.353Z,36.64
2022-09-01T14:12:49.132Z,36.94
2022-09-01T14:13:53.969Z,38.02
2022-09-01T14:15:13.554Z,38.68
2022-09-01T14:16:20.815Z,38.83
2022-09-01T14:17:23.173Z,39.26
2022-09-01T14:18:32.988Z,39.62
2022-09-01T14:19:37.587Z,39.86
2022-09-01T14:20:45.138Z,40.35
2022-09-01T14:21:47.459Z,39.78
2022-09-01T14:22:53.665Z,39.08
2022-09-01T14:23:55.767Z,38.17
2022-09-01T14:25:02.128Z,39.08
2022-09-01T14:26:12.878Z,39.47
2022-09-01T14:27:15.212Z,39.54
2022-09-01T14:28:20.995Z,38.29
2022-09-01T14:29:25.763Z,37.25
2022-09-01T14:30:32.919Z,36.58
2022-09-01T14:31:36.329Z,36.90
2022-09-01T14:32:40.930Z,36.88
2022-09-01T14:33:46.189Z,36.57
2022-09-01T14:34:50.821Z,36.20
2022-09-01T14:35:56.004Z,35.17
2022-09-01T14:36:58.176Z,34.29
2022-09-01T14:38:05.342Z,33.78
2022-09-01T14:39:10.002Z,33.11
2022-09-01T14:40:16.357Z,32.31
2022-09-01T14:41:26.471Z,31.40
2022-09-01T14:42:29.445Z,31.13
2022-09-01T14:43:34.101Z,30.88
2022-09-01T14:44:37.899Z,30.43
2022-09-01T14:45:44.663Z,29.59
2022-09-01T14:46:47.342Z,30.09
2022-09-01T14:47:54.501Z,30.83
2022-09-01T14:48:59.851Z,31.75
2022-09-01T14:51:23.658Z,33.46
2022-09-01T14:52:25.798Z,33.60
2022-09-01T14:53:31.070Z,33.36
2022-09-01T14:54:37.074Z,32.90
2022-09-01T14:55:44.116Z,32.53
2022-09-01T14:58:12.437Z,30.55
2022-09-01T14:59:14.929Z,29.91
2022-09-01T15:00:20.337Z,29.72
2022-09-01T15:01:34.138Z,30.05
2022-09-01T15:02:36.813Z,30.18
2022-09-01T15:03:41.413Z,29.77
2022-09-01T15:04:43.577Z,29.56
2022-09-01T15:05:53.963Z,29.00
2022-09-01T15:06:56.062Z,28.66